createdAt,value
2019-05-07T00:00:48.074Z,80.20
2019-05-07T00:03:17.877Z,79.10
2019-05-07T00:05:47.624Z,81.40
2019-05-07T00:08:17.371Z,81.40
2019-05-07T00:10:47.131Z,80.60
2019-05-07T00:13:16.884Z,80.60
2019-05-07T00:15:46.671Z,81.50
2019-05-07T00:18:16.403Z,82.10
2019-05-07T00:20:46.162Z,82.00
2019-05-07T00:23:15.908Z,83.50
2019-05-07T00:25:45.643Z,84.00
2019-05-07T00:28:15.407Z,84.20
2019-05-07T00:30:45.145Z,84.10
2019-05-07T00:33:14.929Z,84.80
2019-05-07T00:35:48.735Z,86.30
2019-05-07T00:38:22.339Z,84.40
2019-05-07T00:40:53.028Z,84.70
2019-05-07T00:43:24.731Z,85.00
2019-05-07T00:45:58.863Z,82.70
2019-05-07T00:48:28.625Z,82.20
2019-05-07T00:51:01.837Z,82.60
2019-05-07T00:53:32.913Z,81.70
2019-05-07T00:56:02.834Z,83.10
2019-05-07T00:58:32.685Z,82.80
2019-05-07T01:01:02.658Z,83.90
2019-05-07T01:03:32.908Z,83.80
2019-05-07T01:06:02.667Z,85.10
2019-05-07T01:08:32.398Z,83.70
2019-05-07T01:11:02.303Z,84.20
2019-05-07T01:13:32.369Z,82.10
2019-05-07T01:16:02.575Z,83.00
2019-05-07T01:18:32.487Z,82.70
2019-05-07T01:21:02.459Z,83.80
2019-05-07T01:23:32.338Z,83.10
2019-05-07T01:26:03.089Z,82.40
2019-05-07T01:28:34.465Z,83.40
2019-05-07T01:31:04.203Z,82.70
2019-05-07T01:33:35.520Z,83.60
2019-05-07T01:36:09.803Z,84.10
2019-05-07T01:38:39.549Z,83.10
2019-05-07T01:41:09.328Z,82.70
2019-05-07T01:43:39.073Z,83.10
2019-05-07T01:46:08.823Z,83.70
2019-05-07T01:48:38.582Z,83.40
2019-05-07T01:51:08.335Z,83.10
2019-05-07T01:53:38.167Z,81.50
2019-05-07T01:56:07.884Z,83.80
2019-05-07T01:58:37.631Z,83.10
2019-05-07T02:01:07.368Z,83.20
2019-05-07T02:03:47.285Z,82.10
2019-05-07T02:06:27.454Z,83.50
2019-05-07T02:09:02.383Z,81.50
2019-05-07T02:11:35.338Z,82.30
2019-05-07T02:14:05.076Z,81.00
2019-05-07T02:16:34.819Z,80.70
2019-05-07T02:19:05.676Z,80.00
2019-05-07T02:21:35.457Z,80.80
2019-05-07T02:24:05.200Z,82.00
2019-05-07T02:26:34.947Z,82.10
2019-05-07T02:29:05.845Z,82.10
2019-05-07T02:31:35.561Z,81.40
2019-05-07T02:34:05.355Z,81.20
2019-05-07T02:36:35.783Z,81.10
2019-05-07T02:39:12.825Z,81.40
2019-05-07T02:41:44.096Z,80.90
2019-05-07T02:44:14.281Z,81.40
2019-05-07T02:46:48.747Z,81.10
2019-05-07T02:49:26.107Z,81.50
2019-05-07T02:51:57.431Z,83.70
2019-05-07T02:54:32.853Z,81.90
2019-05-07T02:57:03.348Z,82.60
2019-05-07T02:59:34.327Z,82.90
2019-05-07T03:02:04.081Z,83.30
2019-05-07T03:04:34.150Z,82.50
2019-05-07T03:07:04.135Z,82.50
2019-05-07T03:09:33.927Z,82.60
2019-05-07T03:12:05.419Z,83.50
2019-05-07T03:14:35.155Z,82.50
2019-05-07T03:17:04.909Z,83.00
2019-05-07T03:19:36.414Z,82.50
2019-05-07T03:22:06.143Z,82.40
2019-05-07T03:24:43.133Z,82.50
2019-05-07T03:27:14.142Z,82.30
2019-05-07T03:29:45.233Z,82.30
2019-05-07T03:32:38.416Z,82.30
2019-05-07T03:35:27.527Z,83.40
2019-05-07T03:37:55.511Z,83.90
2019-05-07T03:40:25.251Z,82.80
2019-05-07T03:42:54.991Z,82.60
2019-05-07T03:45:26.311Z,82.50
2019-05-07T03:48:13.291Z,82.30
2019-05-07T03:50:43.234Z,82.10
2019-05-07T03:53:14.304Z,81.90
2019-05-07T03:55:45.020Z,83.00
2019-05-07T03:58:15.022Z,82.90
2019-05-07T04:00:45.347Z,83.10
2019-05-07T04:03:19.425Z,82.10
2019-05-07T04:05:47.610Z,82.00
2019-05-07T04:08:18.478Z,82.60
2019-05-07T04:10:48.219Z,82.80
2019-05-07T04:13:17.960Z,82.90
2019-05-07T04:15:47.693Z,83.40
2019-05-07T04:18:17.440Z,83.20
2019-05-07T04:20:47.264Z,82.70
2019-05-07T04:23:17.026Z,82.40
2019-05-07T04:25:57.033Z,82.80
2019-05-07T04:28:28.326Z,82.20
2019-05-07T04:30:59.189Z,81.80
2019-05-07T04:33:33.314Z,82.50
2019-05-07T04:36:14.064Z,82.00
2019-05-07T04:38:44.427Z,81.70
2019-05-07T04:41:14.209Z,81.80
2019-05-07T04:43:43.955Z,81.50
2019-05-07T04:46:14.468Z,80.80
2019-05-07T04:48:44.468Z,80.90
2019-05-07T04:51:16.567Z,80.30
2019-05-07T04:53:46.304Z,80.30
2019-05-07T04:56:16.049Z,80.40
2019-05-07T04:58:45.804Z,80.10
2019-05-07T05:01:17.103Z,80.30
2019-05-07T05:03:46.817Z,79.50
2019-05-07T05:06:16.579Z,78.60
2019-05-07T05:08:46.326Z,76.20
2019-05-07T05:11:16.194Z,75.30
2019-05-07T05:13:45.952Z,76.00
2019-05-07T05:16:26.253Z,75.30
2019-05-07T05:18:56.872Z,72.50
2019-05-07T05:21:44.456Z,71.50
2019-05-07T05:24:15.772Z,69.40
2019-05-07T05:26:45.512Z,63.60
2019-05-07T05:29:15.838Z,61.40
2019-05-07T05:31:45.615Z,61.90
2019-05-07T05:34:15.364Z,62.20
2019-05-07T05:36:45.440Z,63.40
2019-05-07T05:39:15.190Z,64.00
2019-05-07T05:41:46.511Z,65.40
2019-05-07T05:44:31.869Z,64.30
2019-05-07T05:47:02.422Z,66.30
2019-05-07T05:49:32.387Z,70.70
2019-05-07T05:52:15.817Z,67.40
2019-05-07T05:54:47.143Z,68.90
2019-05-07T05:57:24.215Z,67.70
2019-05-07T05:59:55.682Z,65.30
2019-05-07T06:02:44.196Z,64.50
2019-05-07T06:05:34.255Z,59.70
2019-05-07T06:08:05.015Z,58.10
2019-05-07T06:10:39.295Z,57.90
2019-05-07T06:13:12.375Z,57.40
2019-05-07T06:15:55.731Z,58.20
2019-05-07T06:18:42.097Z,55.80
2019-05-07T06:21:16.362Z,49.20
2019-05-07T06:23:52.744Z,47.40
2019-05-07T06:26:22.755Z,48.10
2019-05-07T06:29:02.415Z,49.70
2019-05-07T06:31:32.776Z,48.20
2019-05-07T06:34:02.620Z,46.50
2019-05-07T06:36:34.097Z,48.90
2019-05-07T06:39:22.190Z,52.00
2019-05-07T06:42:09.496Z,53.60
2019-05-07T06:44:39.236Z,54.70
2019-05-07T06:47:08.995Z,57.60
2019-05-07T06:49:38.759Z,60.40
2019-05-07T06:52:08.476Z,59.70
2019-05-07T06:54:39.236Z,59.30
2019-05-07T06:57:09.050Z,59.60
2019-05-07T06:59:42.391Z,60.70
2019-05-07T07:02:25.329Z,62.60
2019-05-07T07:04:59.494Z,60.70
2019-05-07T07:07:34.715Z,61.30
2019-05-07T07:10:11.881Z,60.20
2019-05-07T07:12:42.466Z,62.10
2019-05-07T07:15:12.344Z,62.20
2019-05-07T07:17:42.082Z,58.40
2019-05-07T07:20:13.839Z,57.70
2019-05-07T07:22:43.579Z,57.80
2019-05-07T07:25:13.616Z,54.70
2019-05-07T07:27:43.379Z,51.90
2019-05-07T07:30:21.861Z,54.60
2019-05-07T07:32:53.357Z,55.20
2019-05-07T07:35:24.162Z,54.50
2019-05-07T07:37:57.985Z,55.30
2019-05-07T07:40:42.476Z,54.80
2019-05-07T07:43:12.920Z,57.00
2019-05-07T07:45:43.789Z,55.60
2019-05-07T07:48:13.579Z,54.40
2019-05-07T07:50:43.410Z,53.70
2019-05-07T07:53:13.335Z,55.90
2019-05-07T07:55:44.760Z,55.10
2019-05-07T07:58:26.071Z,59.00
2019-05-07T08:01:00.073Z,61.00
2019-05-07T08:03:29.814Z,59.20
2019-05-07T08:05:59.580Z,63.50
2019-05-07T08:08:32.019Z,57.00
2019-05-07T08:11:02.427Z,53.40
2019-05-07T08:13:32.531Z,50.60
2019-05-07T08:16:02.608Z,52.40
2019-05-07T08:18:32.921Z,53.20
2019-05-07T08:21:02.654Z,50.10
2019-05-07T08:23:32.413Z,46.00
2019-05-07T08:26:02.611Z,41.90
2019-05-07T08:28:32.494Z,37.30
2019-05-07T08:31:04.886Z,33.10
2019-05-07T08:33:36.216Z,33.00
2019-05-07T08:36:12.004Z,37.60
2019-05-07T08:38:57.655Z,39.40
2019-05-07T08:41:28.883Z,44.50
2019-05-07T08:44:09.097Z,48.70
2019-05-07T08:46:38.733Z,50.10
2019-05-07T08:49:13.472Z,49.60
2019-05-07T08:51:43.222Z,50.90
2019-05-07T08:54:12.960Z,50.30
2019-05-07T08:56:42.922Z,54.10
2019-05-07T08:59:12.658Z,55.90
2019-05-07T09:01:43.497Z,52.70
2019-05-07T09:04:13.637Z,51.10
2019-05-07T09:06:46.275Z,50.90
2019-05-07T09:09:16.003Z,53.20
2019-05-07T09:11:45.740Z,55.50
2019-05-07T09:14:15.503Z,56.30
2019-05-07T09:16:45.375Z,57.90
2019-05-07T09:19:15.177Z,57.30
2019-05-07T09:21:45.219Z,54.90
2019-05-07T09:24:14.964Z,45.00
2019-05-07T09:27:05.475Z,43.20
2019-05-07T09:29:42.868Z,46.50
2019-05-07T09:32:17.018Z,48.60
2019-05-07T09:34:48.325Z,51.90
2019-05-07T09:37:19.664Z,51.40
2019-05-07T09:39:49.391Z,49.80
2019-05-07T09:42:19.184Z,46.10
2019-05-07T09:44:48.910Z,42.10
2019-05-07T09:47:18.660Z,38.40
2019-05-07T09:50:02.042Z,38.80
2019-05-07T09:52:19.746Z,42.60
2019-05-07T09:54:51.962Z,44.40
2019-05-07T09:57:30.044Z,48.10
2019-05-07T09:59:53.034Z,49.00
2019-05-07T10:02:23.272Z,49.80
2019-05-07T10:04:53.139Z,42.30
2019-05-07T10:07:23.027Z,44.10
2019-05-07T10:09:52.772Z,37.40
2019-05-07T10:12:24.195Z,39.20
2019-05-07T10:14:54.026Z,41.80
2019-05-07T10:17:25.398Z,45.30
2019-05-07T10:19:55.346Z,47.80
2019-05-07T10:22:25.100Z,47.30
2019-05-07T10:24:55.463Z,43.00
2019-05-07T10:27:25.308Z,41.80
2019-05-07T10:29:55.386Z,39.80
2019-05-07T10:32:25.189Z,42.10
2019-05-07T10:34:55.033Z,41.80
2019-05-07T10:37:24.758Z,44.10
2019-05-07T10:39:54.848Z,48.20
2019-05-07T10:42:24.587Z,51.00
2019-05-07T10:44:58.802Z,48.70
2019-05-07T10:47:46.015Z,51.80
2019-05-07T10:50:17.676Z,47.40
2019-05-07T10:52:47.422Z,46.20
2019-05-07T10:55:17.176Z,46.70
2019-05-07T10:57:46.959Z,48.70
2019-05-07T11:00:18.846Z,52.00
2019-05-07T11:02:48.616Z,51.80
2019-05-07T11:05:18.659Z,52.30
2019-05-07T11:07:48.499Z,53.40
2019-05-07T11:10:18.869Z,52.20
2019-05-07T11:12:48.599Z,53.20
2019-05-07T11:15:18.568Z,52.20
2019-05-07T11:17:52.113Z,52.50
2019-05-07T11:20:22.634Z,52.40
2019-05-07T11:22:52.559Z,52.60
2019-05-07T11:25:22.622Z,49.70
2019-05-07T11:27:52.547Z,50.80
2019-05-07T11:30:23.523Z,48.70
2019-05-07T11:32:53.396Z,49.90
2019-05-07T11:35:23.203Z,50.80
2019-05-07T11:37:53.693Z,50.20
2019-05-07T11:40:24.248Z,50.30
2019-05-07T11:43:08.759Z,50.30
2019-05-07T11:45:46.125Z,49.40
2019-05-07T11:48:18.637Z,49.00
2019-05-07T11:51:00.571Z,47.80
2019-05-07T11:53:25.004Z,49.40
2019-05-07T11:55:54.704Z,51.90
2019-05-07T11:58:24.445Z,50.60
2019-05-07T12:00:56.739Z,51.70
2019-05-07T12:03:26.465Z,51.90
2019-05-07T12:05:56.206Z,51.50
2019-05-07T12:08:37.412Z,51.00
2019-05-07T12:10:57.366Z,50.50
2019-05-07T12:13:27.123Z,52.40
2019-05-07T12:15:56.859Z,50.80
2019-05-07T12:18:26.775Z,49.10
2019-05-07T12:20:56.520Z,48.80
2019-05-07T12:23:26.278Z,50.00
2019-05-07T12:25:57.034Z,49.30
2019-05-07T12:28:26.745Z,52.30
2019-05-07T12:30:58.099Z,53.60
2019-05-07T12:33:45.576Z,53.40
2019-05-07T12:36:16.496Z,54.90
2019-05-07T12:38:47.217Z,55.00
2019-05-07T12:41:35.426Z,53.40
2019-05-07T12:44:07.438Z,57.50
2019-05-07T12:46:37.480Z,57.50
2019-05-07T12:49:07.529Z,56.10
2019-05-07T12:51:38.879Z,56.10
2019-05-07T12:54:11.929Z,59.00
2019-05-07T12:56:42.672Z,58.00
2019-05-07T12:59:13.640Z,54.50
2019-05-07T13:01:46.705Z,57.30
2019-05-07T13:04:22.091Z,56.50
2019-05-07T13:06:57.285Z,56.60
2019-05-07T13:09:27.082Z,53.00
2019-05-07T13:11:56.852Z,55.80
2019-05-07T13:14:26.606Z,53.50
2019-05-07T13:16:56.343Z,52.40
2019-05-07T13:19:26.089Z,53.90
2019-05-07T13:21:55.871Z,51.20
2019-05-07T13:24:28.255Z,51.60
2019-05-07T13:26:57.914Z,51.50
2019-05-07T13:29:27.699Z,51.60
2019-05-07T13:31:58.942Z,49.70
2019-05-07T13:34:28.715Z,49.30
2019-05-07T13:37:02.523Z,50.40
2019-05-07T13:39:33.228Z,49.80
2019-05-07T13:42:12.670Z,48.60
2019-05-07T13:44:43.935Z,48.80
2019-05-07T13:47:24.386Z,49.80
2019-05-07T13:49:55.135Z,47.90
2019-05-07T13:52:25.556Z,48.90
2019-05-07T13:54:55.508Z,52.30
2019-05-07T13:57:25.254Z,49.20
2019-05-07T13:59:55.072Z,48.40
2019-05-07T14:02:27.297Z,51.50
2019-05-07T14:04:57.134Z,53.40
2019-05-07T14:07:28.505Z,56.90
2019-05-07T14:09:58.453Z,63.40
2019-05-07T14:12:28.606Z,63.90
2019-05-07T14:14:58.342Z,63.10
2019-05-07T14:17:28.103Z,63.40
2019-05-07T14:19:57.845Z,68.30
2019-05-07T14:22:27.581Z,63.70
2019-05-07T14:24:57.351Z,62.90
2019-05-07T14:27:27.095Z,59.90
2019-05-07T14:29:56.832Z,58.50
2019-05-07T14:32:31.134Z,58.50
2019-05-07T14:35:05.175Z,55.30
2019-05-07T14:37:36.496Z,54.80
2019-05-07T14:40:07.849Z,58.00
2019-05-07T14:42:39.291Z,52.60
2019-05-07T14:45:09.031Z,54.50
2019-05-07T14:47:38.764Z,53.90
2019-05-07T14:50:08.872Z,56.40
2019-05-07T14:52:38.686Z,57.50
2019-05-07T14:55:08.804Z,56.40
2019-05-07T14:57:38.548Z,57.70
2019-05-07T15:00:08.696Z,58.00
2019-05-07T15:02:39.407Z,63.90
2019-05-07T15:05:11.802Z,67.50
2019-05-07T15:07:45.074Z,68.20
2019-05-07T15:10:15.162Z,66.50
2019-05-07T15:12:44.935Z,66.50
2019-05-07T15:15:17.087Z,65.20
2019-05-07T15:17:48.412Z,58.70
2019-05-07T15:20:18.339Z,56.00
2019-05-07T15:22:57.278Z,54.50
2019-05-07T15:25:36.564Z,57.20
2019-05-07T15:28:03.216Z,55.00
2019-05-07T15:30:52.252Z,56.60
2019-05-07T15:33:29.596Z,56.20
2019-05-07T15:36:02.889Z,55.40
2019-05-07T15:38:32.614Z,56.50
2019-05-07T15:41:03.333Z,53.70
2019-05-07T15:43:33.152Z,53.10
2019-05-07T15:46:03.039Z,52.60
2019-05-07T15:48:32.832Z,53.10
2019-05-07T15:51:02.558Z,53.60
2019-05-07T15:53:43.042Z,54.60
2019-05-07T15:56:12.835Z,52.40
2019-05-07T15:58:43.566Z,52.50
2019-05-07T16:01:13.332Z,52.90
2019-05-07T16:03:45.597Z,52.40
2019-05-07T16:06:15.333Z,51.70
2019-05-07T16:08:52.373Z,51.60
2019-05-07T16:11:23.228Z,51.60
2019-05-07T16:14:06.761Z,52.00
2019-05-07T16:16:38.084Z,54.60
2019-05-07T16:19:09.525Z,54.30
2019-05-07T16:21:39.175Z,54.50
2019-05-07T16:24:08.933Z,56.70
2019-05-07T16:26:38.691Z,54.60
2019-05-07T16:29:08.437Z,54.50
2019-05-07T16:31:38.234Z,55.50
2019-05-07T16:34:07.980Z,57.00
2019-05-07T16:36:37.722Z,57.80
2019-05-07T16:39:08.087Z,59.10
2019-05-07T16:41:37.808Z,59.30
2019-05-07T16:44:08.483Z,59.50
2019-05-07T16:46:38.220Z,58.20
2019-05-07T16:49:07.988Z,59.50
2019-05-07T16:51:37.781Z,60.10
2019-05-07T16:54:07.517Z,61.10
2019-05-07T16:56:38.836Z,61.90
2019-05-07T16:59:08.987Z,60.80
2019-05-07T17:01:39.045Z,62.20
2019-05-07T17:04:09.711Z,62.80
2019-05-07T17:06:39.465Z,62.60
2019-05-07T17:09:13.776Z,61.80
2019-05-07T17:11:43.902Z,62.20
2019-05-07T17:14:13.807Z,63.70
2019-05-07T17:16:43.568Z,66.60
2019-05-07T17:19:14.611Z,65.40
2019-05-07T17:21:45.433Z,67.70
2019-05-07T17:24:15.189Z,70.60
2019-05-07T17:26:44.943Z,71.40
2019-05-07T17:29:14.680Z,71.60
2019-05-07T17:31:44.765Z,70.10
2019-05-07T17:34:14.508Z,73.30
2019-05-07T17:36:44.228Z,72.50
2019-05-07T17:39:14.531Z,76.00
2019-05-07T17:41:44.276Z,76.90
2019-05-07T17:44:14.023Z,79.10
2019-05-07T17:46:46.149Z,80.80
2019-05-07T17:49:15.632Z,80.80
2019-05-07T17:51:45.908Z,81.40
2019-05-07T17:54:15.847Z,82.90
2019-05-07T17:56:45.611Z,82.90
2019-05-07T17:59:15.396Z,85.30
2019-05-07T18:01:49.886Z,87.10
2019-05-07T18:04:18.856Z,88.00
2019-05-07T18:06:48.596Z,89.40
2019-05-07T18:09:18.452Z,90.10
2019-05-07T18:11:48.180Z,90.40
2019-05-07T18:14:17.964Z,90.80
2019-05-07T18:16:49.286Z,90.90
2019-05-07T18:19:19.058Z,91.10
2019-05-07T18:21:48.796Z,91.40
2019-05-07T18:24:18.540Z,92.00
2019-05-07T18:26:48.399Z,92.50
2019-05-07T18:29:18.128Z,92.60
2019-05-07T18:31:49.528Z,92.50
2019-05-07T18:34:19.292Z,93.00
2019-05-07T18:36:49.424Z,93.60
2019-05-07T18:39:20.414Z,93.30
2019-05-07T18:41:52.142Z,93.10
2019-05-07T18:44:22.392Z,93.70
2019-05-07T18:46:53.248Z,93.00
2019-05-07T18:49:23.680Z,93.90
2019-05-07T18:51:53.436Z,95.10
2019-05-07T18:54:30.471Z,95.40
2019-05-07T18:56:54.614Z,95.40
2019-05-07T18:59:26.942Z,95.80
2019-05-07T19:01:56.702Z,96.10
2019-05-07T19:04:30.110Z,96.10
2019-05-07T19:06:59.755Z,96.30
2019-05-07T19:09:31.783Z,96.90
2019-05-07T19:12:01.023Z,97.40
2019-05-07T19:14:33.133Z,97.50
2019-05-07T19:17:03.293Z,97.60
2019-05-07T19:19:33.148Z,98.10
2019-05-07T19:22:02.892Z,98.40
2019-05-07T19:24:44.635Z,97.80
2019-05-07T19:27:04.809Z,98.00
2019-05-07T19:29:34.650Z,97.80
2019-05-07T19:32:05.968Z,98.30
2019-05-07T19:34:36.825Z,97.50
2019-05-07T19:37:06.576Z,96.40
2019-05-07T19:39:36.349Z,94.70
2019-05-07T19:42:06.132Z,94.10
2019-05-07T19:44:36.004Z,93.50
2019-05-07T19:47:06.637Z,93.10
2019-05-07T19:49:36.388Z,92.80
2019-05-07T19:52:06.147Z,93.20
2019-05-07T19:54:35.893Z,91.80
2019-05-07T19:57:05.637Z,91.40
2019-05-07T19:59:35.387Z,92.40
2019-05-07T20:02:06.708Z,92.30
2019-05-07T20:04:36.524Z,92.80
2019-05-07T20:07:06.268Z,93.60
2019-05-07T20:09:37.592Z,94.20
2019-05-07T20:12:08.202Z,94.40
2019-05-07T20:14:38.016Z,94.80
2019-05-07T20:17:08.684Z,95.20
2019-05-07T20:19:38.472Z,95.30
2019-05-07T20:22:08.222Z,95.80
2019-05-07T20:24:37.994Z,96.20
2019-05-07T20:27:08.848Z,96.50
2019-05-07T20:29:38.580Z,96.80
2019-05-07T20:32:08.412Z,96.80
2019-05-07T20:34:38.140Z,97.30
2019-05-07T20:37:07.917Z,97.00
2019-05-07T20:39:37.677Z,96.60
2019-05-07T20:42:08.411Z,96.70
2019-05-07T20:44:38.195Z,97.30
2019-05-07T20:47:08.059Z,97.00
2019-05-07T20:49:37.812Z,96.70
2019-05-07T20:52:07.548Z,96.80
2019-05-07T20:54:38.871Z,96.70
2019-05-07T20:57:10.212Z,96.50
2019-05-07T20:59:39.964Z,96.20
2019-05-07T21:02:11.735Z,96.10
2019-05-07T21:04:42.475Z,96.00
2019-05-07T21:07:12.344Z,96.70
2019-05-07T21:09:42.345Z,96.60
2019-05-07T21:12:12.832Z,96.00
2019-05-07T21:14:43.825Z,95.50
2019-05-07T21:17:13.592Z,96.00
2019-05-07T21:19:43.343Z,96.50
2019-05-07T21:22:13.245Z,96.80
2019-05-07T21:24:43.052Z,97.50
2019-05-07T21:27:12.792Z,97.40
2019-05-07T21:29:42.532Z,97.40
2019-05-07T21:32:12.564Z,97.40
2019-05-07T21:34:42.420Z,97.80
2019-05-07T21:37:12.755Z,97.80
2019-05-07T21:39:42.628Z,97.60
2019-05-07T21:42:14.239Z,97.40
2019-05-07T21:44:43.728Z,97.10
2019-05-07T21:47:13.469Z,97.50
2019-05-07T21:49:43.256Z,98.40
2019-05-07T21:52:13.047Z,97.60
2019-05-07T21:54:44.372Z,97.70
2019-05-07T21:57:28.087Z,97.70
2019-05-07T22:00:12.640Z,97.80
2019-05-07T22:02:44.441Z,98.00
2019-05-07T22:05:15.395Z,98.00
2019-05-07T22:07:45.163Z,98.10
2019-05-07T22:10:15.207Z,98.80
2019-05-07T22:12:44.967Z,99.10
2019-05-07T22:15:15.025Z,98.30
2019-05-07T22:17:44.771Z,99.30
2019-05-07T22:20:14.617Z,99.30
2019-05-07T22:22:44.364Z,99.70
2019-05-07T22:25:45.814Z,99.00
2019-05-07T22:28:15.548Z,99.00
2019-05-07T22:31:04.419Z,99.20
2019-05-07T22:33:35.735Z,99.40
2019-05-07T22:36:05.519Z,99.40
2019-05-07T22:38:42.901Z,99.40
2019-05-07T22:41:14.222Z,99.70
2019-05-07T22:43:44.067Z,99.90
2019-05-07T22:46:13.834Z,99.80
2019-05-07T22:48:43.592Z,99.90
2019-05-07T22:51:13.325Z,99.90
2019-05-07T22:53:43.094Z,99.90
2019-05-07T22:56:14.134Z,99.90
2019-05-07T22:58:48.193Z,99.90
2019-05-07T23:01:19.332Z,99.90
2019-05-07T23:03:49.312Z,99.80
2019-05-07T23:06:20.019Z,99.50
2019-05-07T23:08:49.784Z,99.20
2019-05-07T23:11:19.534Z,99.30
2019-05-07T23:13:49.288Z,99.40
2019-05-07T23:16:19.045Z,99.60
2019-05-07T23:18:48.791Z,99.60
2019-05-07T23:21:24.395Z,99.50
2019-05-07T23:23:52.864Z,99.70
2019-05-07T23:26:23.445Z,99.70
2019-05-07T23:28:54.475Z,99.60
2019-05-07T23:31:24.236Z,99.50
2019-05-07T23:33:53.984Z,99.30
2019-05-07T23:36:23.735Z,99.90
2019-05-07T23:38:53.493Z,99.90
2019-05-07T23:41:34.054Z,99.90
2019-05-07T23:44:12.493Z,99.90
2019-05-07T23:46:44.401Z,99.90
2019-05-07T23:49:13.316Z,99.90
2019-05-07T23:51:43.059Z,99.90
2019-05-07T23:54:12.865Z,99.90
2019-05-07T23:56:42.931Z,99.90
2019-05-07T23:59:14.896Z,99.90
